Flight Track Log - Related Links

Times and Time Zones

All times are in EDT time to prevent confusion due to time zone crossing. See the EGF3681 flight status page for this flight to view local times or setup timezone preferences in your user account.

Time Position Orientation Groundspeed Altitude Reporting Facility
EDT Latitude Longitude Course Direction KTS MPH feet Rate Location/Type
Mon 11:04:00 PM 41.6680 -87.3255 125° Southeast  Level Estimated
Mon 11:05:00 PM 41.6158 -87.2291 126° Southeast  Level Estimated
Mon 11:06:00 PM 41.5635 -87.1328 126° Southeast  Level Estimated
Mon 11:07:00 PM 41.5112 -87.0367 126° Southeast  Level Estimated
Mon 11:08:00 PM 41.4588 -86.9407 126° Southeast  Level Estimated
Mon 11:09:00 PM 41.4063 -86.8449 126° Southeast  Level Estimated
Mon 11:10:00 PM 41.3537 -86.7493 126° Southeast  Level Estimated
Mon 11:11:00 PM 41.3010 -86.6538 126° Southeast  Level Estimated
Mon 11:12:00 PM 41.2483 -86.5584 126° Southeast  Level Estimated
Mon 11:13:00 PM 41.1955 -86.4633 126° Southeast  Level Estimated
Mon 11:14:00 PM 41.1426 -86.3682 126° Southeast  Level Estimated
Mon 11:15:00 PM 41.0896 -86.2733 127° Southeast  Level Estimated
Mon 11:16:00 PM 41.0365 -86.1786 127° Southeast  Level Estimated
Mon 11:17:00 PM 40.9834 -86.0840 127° Southeast  Level Estimated
Mon 11:18:00 PM 40.9302 -85.9896 127° Southeast  Level Estimated
Mon 11:19:00 PM 40.8769 -85.8953 127° Southeast  Level Estimated
Mon 11:20:00 PM 40.8236 -85.8012 127° Southeast  Level Estimated
Mon 11:21:00 PM 40.7701 -85.7073 127° Southeast  Level Estimated
Mon 11:22:00 PM 40.7166 -85.6134 127° Southeast  Level Estimated
Mon 11:23:00 PM 40.6631 -85.5198 127° Southeast  Level Estimated
Mon 11:24:00 PM 40.6094 -85.4262 127° Southeast  Level Estimated
Mon 11:25:00 PM 40.5557 -85.3329 127° Southeast  Level Estimated
Mon 11:26:00 PM 40.5018 -85.2397 127° Southeast  Level Estimated
Mon 11:27:00 PM 40.4480 -85.1466 127° Southeast  Level Estimated
Mon 11:28:00 PM 40.3940 -85.0537 127° Southeast  Level Estimated
Mon 11:29:00 PM 40.3400 -84.9609 127° Southeast  Level Estimated
Mon 11:30:00 PM 40.2859 -84.8683 127° Southeast  Level Estimated
Mon 11:31:00 PM 40.2317 -84.7758 127° Southeast  Level Estimated
Mon 11:32:00 PM 40.1774 -84.6835 128° Southeast  Level Estimated
Mon 11:33:00 PM 40.1231 -84.5913 128° Southeast  Level Estimated
Mon 11:34:00 PM 40.0687 -84.4993 128° Southeast  Level Estimated
Mon 11:35:00 PM 40.0142 -84.4074 128° Southeast  Level Estimated

Login

Don't have an account? Register now (free) for customized features, flight alerts, and more!